Time;durP1;ratioP1;P1;durP2;ratioP2;P2;SDS_P1;SDS_P2;PMS_P1;PMS_P2;Temp;Humidity;BMP_temperature;BMP_pressure;BME280_temperature;BME280_humidity;BME280_pressure;Samples;Min_cycle;Max_cycle;Signal;HPM_P1;HPM_P2
2022/02/11 00:07:47;;;;;;;;;;;;;;;;;;5043272;28;19920;-75
2022/02/11 00:10:12;;;;;;;;;;;;;;;;;;5041559;28;19912;-76
2022/02/11 00:12:38;;;;;;;;;;;;;;;;;;5042545;28;19916;-76
2022/02/11 00:17:31;;;;;;;;;;;;;;;;;;5041102;28;20238;-76
2022/02/11 00:19:57;;;;;;;;;;;;;;;;;;5037373;28;19917;-78
2022/02/11 00:22:23;;;;;;;;;;;;;;;;;;5042665;28;19913;-76
2022/02/11 00:24:52;;;;;;;;;;;;;;;;;;5042155;28;19924;-79
2022/02/11 00:35:41;;;;;;;;;;;;;;;;;;5029630;28;20392;-76
2022/02/11 00:38:09;;;;;;;;;;;;;;;;;;5034414;28;20373;-77
2022/02/11 00:41:11;;;;;;;;;;;;;;;;;;5035850;28;20392;-75
2022/02/11 01:04:34;;;;;;;;;;;;;;;;;;5043482;28;19919;-78
2022/02/11 01:07:00;;;;;;;;;;;;;;;;;;5040589;28;19920;-78
2022/02/11 01:09:25;;;;;;;;;;;;;;;;;;5042086;28;20343;-78
2022/02/11 01:11:53;;;;;;;;;;;;;;;;;;5041250;28;19924;-77
2022/02/11 01:14:22;;;;;;;;;;;;;;;;;;5041997;28;20007;-77
2022/02/11 01:16:55;;;;;;;;;;;;;;;;;;5024553;28;19923;-77
2022/02/11 01:19:30;;;;;;;;;;;;;;;;;;5060991;28;20030;-76
2022/02/11 01:27:35;;;;;;;;;;;;;;;;;;5044626;28;19927;-78
2022/02/11 01:41:00;;;;;;;;;;;;;;;;;;5029703;28;20004;-77
2022/02/11 01:53:56;;;;;;;;;;;;;;;;;;5034913;28;20019;-76
2022/02/11 02:25:34;;;;;;;;;;;;;;;;;;5043283;28;19919;-77
2022/02/11 02:39:05;;;;;;;;;;;;;;;;;;5040088;28;19925;-77
2022/02/11 02:57:48;;;;;;;;;;;;;;;;;;5034072;28;20316;-77
2022/02/11 03:49:47;;;;;;;;;;;;;;;;;;5038490;28;19920;-78
2022/02/11 03:52:36;;;;;;;;;;;;;;;;;;5025117;28;19983;-76
2022/02/11 03:57:53;;;;;;;;;;;;;;;;;;5042397;28;19970;-75
2022/02/11 04:20:23;;;;;;;;;;;;;;;;;;5033616;28;19920;-77
2022/02/11 04:55:20;;;;;;;;;;;;;;;;;;5042997;28;20376;-77
2022/02/11 05:00:30;;;;;;;;;;;;;;;;;;5046219;28;19958;-78
2022/02/11 05:02:57;;;;;;;;;;;;;;;;;;5045305;28;19944;-76
2022/02/11 05:05:23;;;;;;;;;;;;;;;;;;5038255;28;20377;-76
2022/02/11 05:07:48;;;;;;;;;;;;;;;;;;5038188;28;19949;-77
2022/02/11 05:10:13;;;;;;;;;;;;;;;;;;5045559;28;19912;-77
2022/02/11 05:12:39;;;;;;;;;;;;;;;;;;5046145;28;19943;-76
2022/02/11 05:15:11;;;;;;;;;;;;;;;;;;5037841;28;19917;-77
2022/02/11 05:17:40;;;;;;;;;;;;;;;;;;5034419;28;19919;-77
2022/02/11 05:20:07;;;;;;;;;;;;;;;;;;5045846;28;19921;-76
2022/02/11 05:22:32;;;;;;;;;;;;;;;;;;5042988;28;19913;-77
2022/02/11 05:24:58;;;;;;;;;;;;;;;;;;5038476;28;20409;-76
2022/02/11 05:27:23;;;;;;;;;;;;;;;;;;5044447;28;19935;-79
2022/02/11 05:29:49;;;;;;;;;;;;;;;;;;5039209;28;19992;-77
2022/02/11 05:32:14;;;;;;;;;;;;;;;;;;5038719;28;19913;-77
2022/02/11 05:34:40;;;;;;;;;;;;;;;;;;5043694;28;20350;-78
2022/02/11 05:37:05;;;;;;;;;;;;;;;;;;5039280;28;19976;-76
2022/02/11 05:39:31;;;;;;;;;;;;;;;;;;5060628;28;19920;-77
2022/02/11 05:41:56;;;;;;;;;;;;;;;;;;5045043;28;20384;-79
2022/02/11 05:44:21;;;;;;;;;;;;;;;;;;5036452;28;19917;-77
2022/02/11 05:46:47;;;;;;;;;;;;;;;;;;5043756;28;20047;-78
2022/02/11 05:49:12;;;;;;;;;;;;;;;;;;5038767;28;20345;-74
2022/02/11 05:51:37;;;;;;;;;;;;;;;;;;5045226;28;19917;-77
2022/02/11 05:54:03;;;;;;;;;;;;;;;;;;5044046;28;19940;-76
2022/02/11 05:56:28;;;;;;;;;;;;;;;;;;5045247;28;19913;-77
2022/02/11 05:58:53;;;;;;;;;;;;;;;;;;5054137;28;20337;-76
2022/02/11 06:01:19;;;;;;;;;;;;;;;;;;5059127;28;19934;-76
2022/02/11 06:03:44;;;;;;;;;;;;;;;;;;5039358;28;19914;-76
2022/02/11 06:06:09;;;;;;;;;;;;;;;;;;5041891;28;19935;-77
2022/02/11 06:08:35;;;;;;;;;;;;;;;;;;5043237;28;20324;-78
2022/02/11 06:11:01;;;;;;;;;;;;;;;;;;5035135;28;19924;-76
2022/02/11 06:13:26;;;;;;;;;;;;;;;;;;5036492;28;19913;-77
2022/02/11 06:15:52;;;;;;;;;;;;;;;;;;5041089;28;19913;-77
2022/02/11 06:18:18;;;;;;;;;;;;;;;;;;5039661;28;20340;-75
2022/02/11 06:20:43;;;;;;;;;;;;;;;;;;5058437;28;20007;-76
2022/02/11 06:23:08;;;;;;;;;;;;;;;;;;5035587;28;19916;-75
2022/02/11 06:25:34;;;;;;;;;;;;;;;;;;5040053;28;19917;-76
2022/02/11 06:27:59;;;;;;;;;;;;;;;;;;5042434;28;20233;-77
2022/02/11 06:30:26;;;;;;;;;;;;;;;;;;5045494;28;19913;-77
2022/02/11 06:32:52;;;;;;;;;;;;;;;;;;5033274;28;20011;-75
2022/02/11 06:35:18;;;;;;;;;;;;;;;;;;5042790;28;19999;-75
2022/02/11 06:37:45;;;;;;;;;;;;;;;;;;5035399;28;20399;-76
2022/02/11 06:40:11;;;;;;;;;;;;;;;;;;5041268;28;19974;-76
2022/02/11 06:42:37;;;;;;;;;;;;;;;;;;5049964;28;19912;-75
2022/02/11 06:45:02;;;;;;;;;;;;;;;;;;5041555;28;19916;-76
2022/02/11 06:47:28;;;;;;;;;;;;;;;;;;5050473;28;19966;-76
2022/02/11 06:49:53;;;;;;;;;;;;;;;;;;5053037;28;20349;-77
2022/02/11 06:52:19;;;;;;;;;;;;;;;;;;5043368;28;20400;-76
2022/02/11 06:54:44;;;;;;;;;;;;;;;;;;5036204;28;19919;-76
2022/02/11 06:57:09;;;;;;;;;;;;;;;;;;5045684;28;19928;-75
2022/02/11 06:59:35;;;;;;;;;;;;;;;;;;5047913;28;19917;-76
2022/02/11 07:02:00;;;;;;;;;;;;;;;;;;5044854;28;20496;-76
2022/02/11 07:04:26;;;;;;;;;;;;;;;;;;5040545;28;20459;-76
2022/02/11 07:06:51;;;;;;;;;;;;;;;;;;5040473;28;19940;-74
2022/02/11 07:09:17;;;;;;;;;;;;;;;;;;5039450;28;19935;-75
2022/02/11 07:11:42;;;;;;;;;;;;;;;;;;5041393;28;19919;-75
2022/02/11 07:14:07;;;;;;;;;;;;;;;;;;5037956;28;19917;-74
2022/02/11 07:16:33;;;;;;;;;;;;;;;;;;5042946;28;19916;-76
2022/02/11 07:18:58;;;;;;;;;;;;;;;;;;5039132;28;19924;-76
2022/02/11 07:21:23;;;;;;;;;;;;;;;;;;5043326;28;19912;-75
2022/02/11 07:23:49;;;;;;;;;;;;;;;;;;5032357;28;19916;-76
2022/02/11 07:26:14;;;;;;;;;;;;;;;;;;5043330;28;19920;-76
2022/02/11 07:28:39;;;;;;;;;;;;;;;;;;5037047;28;19928;-76
2022/02/11 07:31:05;;;;;;;;;;;;;;;;;;5028837;28;20000;-75
2022/02/11 07:33:30;;;;;;;;;;;;;;;;;;5042589;28;19952;-75
2022/02/11 07:35:56;;;;;;;;;;;;;;;;;;5031716;28;20015;-75
2022/02/11 07:38:21;;;;;;;;;;;;;;;;;;5023149;28;19920;-75
2022/02/11 07:40:47;;;;;;;;;;;;;;;;;;5044587;28;19971;-73
2022/02/11 07:43:12;;;;;;;;;;;;;;;;;;5027512;28;19948;-75
2022/02/11 07:45:37;;;;;;;;;;;;;;;;;;5022304;28;20337;-72
2022/02/11 07:48:03;;;;;;;;;;;;;;;;;;5022243;28;19920;-72
2022/02/11 07:50:29;;;;;;;;;;;;;;;;;;5023196;28;20007;-76
2022/02/11 07:52:54;;;;;;;;;;;;;;;;;;5022666;28;19912;-75
2022/02/11 07:55:20;;;;;;;;;;;;;;;;;;5022688;28;19917;-75
2022/02/11 07:57:45;;;;;;;;;;;;;;;;;;5023679;28;19920;-72
2022/02/11 08:00:11;;;;;;;;;;;;;;;;;;5020653;28;20590;-73
2022/02/11 08:02:37;;;;;;;;;;;;;;;;;;5025329;28;19917;-74
2022/02/11 08:05:03;;;;;;;;;;;;;;;;;;5024307;28;19964;-77
2022/02/11 08:07:29;;;;;;;;;;;;;;;;;;5030029;28;19948;-78
2022/02/11 08:09:54;;;;;;;;;;;;;;;;;;5044285;28;19921;-75
2022/02/11 08:12:19;;;;;;;;;;;;;;;;;;5028091;28;19955;-74
2022/02/11 08:14:45;;;;;;;;;;;;;;;;;;5026188;28;19971;-71
2022/02/11 08:17:10;;;;;;;;;;;;;;;;;;5024656;28;19960;-73
2022/02/11 08:19:36;;;;;;;;;;;;;;;;;;5028722;28;19964;-73
2022/02/11 08:22:01;;;;;;;;;;;;;;;;;;5029171;28;19965;-77
2022/02/11 08:24:26;;;;;;;;;;;;;;;;;;5023725;28;19920;-75
2022/02/11 08:26:52;;;;;;;;;;;;;;;;;;5030480;28;19924;-72
2022/02/11 08:29:22;;;;;;;;;;;;;;;;;;5020051;28;19921;-75
2022/02/11 08:31:48;;;;;;;;;;;;;;;;;;5027745;28;20328;-74
2022/02/11 08:34:13;;;;;;;;;;;;;;;;;;5028291;28;20007;-73
2022/02/11 08:36:39;;;;;;;;;;;;;;;;;;5030907;28;19920;-75
2022/02/11 08:39:04;;;;;;;;;;;;;;;;;;5028379;28;19931;-75
2022/02/11 08:41:29;;;;;;;;;;;;;;;;;;5031505;28;21123;-77
2022/02/11 08:43:55;;;;;;;;;;;;;;;;;;5044115;28;19917;-77
2022/02/11 08:46:24;;;;;;;;;;;;;;;;;;5028493;28;19924;-75
2022/02/11 08:48:49;;;;;;;;;;;;;;;;;;5024275;28;20653;-75
2022/02/11 08:51:15;;;;;;;;;;;;;;;;;;5039709;28;19982;-74
2022/02/11 08:53:40;;;;;;;;;;;;;;;;;;5042600;28;19917;-76
2022/02/11 08:56:08;;;;;;;;;;;;;;;;;;5031303;28;20003;-76
2022/02/11 08:58:33;;;;;;;;;;;;;;;;;;5026852;28;19921;-74
2022/02/11 09:00:59;;;;;;;;;;;;;;;;;;5027172;28;19921;-74
2022/02/11 09:03:25;;;;;;;;;;;;;;;;;;5029886;28;19920;-74
2022/02/11 09:05:50;;;;;;;;;;;;;;;;;;5034234;28;19921;-76
2022/02/11 09:08:16;;;;;;;;;;;;;;;;;;5033495;28;19987;-76
2022/02/11 09:10:41;;;;;;;;;;;;;;;;;;5036328;28;19967;-73
2022/02/11 09:13:07;;;;;;;;;;;;;;;;;;5035054;28;19957;-75
2022/02/11 09:15:32;;;;;;;;;;;;;;;;;;5032783;28;19923;-74
2022/02/11 09:17:58;;;;;;;;;;;;;;;;;;5030294;28;19940;-72
2022/02/11 09:20:24;;;;;;;;;;;;;;;;;;5028030;28;19927;-75
2022/02/11 09:22:50;;;;;;;;;;;;;;;;;;5024917;28;19971;-75
2022/02/11 09:25:16;;;;;;;;;;;;;;;;;;5025547;28;19917;-74
2022/02/11 09:27:45;;;;;;;;;;;;;;;;;;5024677;28;19932;-72
2022/02/11 09:30:12;;;;;;;;;;;;;;;;;;5023054;28;19921;-74
2022/02/11 09:32:37;;;;;;;;;;;;;;;;;;5026973;28;19948;-72
2022/02/11 09:35:03;;;;;;;;;;;;;;;;;;5026933;28;20474;-75
2022/02/11 09:37:28;;;;;;;;;;;;;;;;;;5041457;28;19917;-74
2022/02/11 09:39:54;;;;;;;;;;;;;;;;;;5023340;28;20277;-74
2022/02/11 09:42:20;;;;;;;;;;;;;;;;;;5026733;28;19921;-73
2022/02/11 09:44:49;;;;;;;;;;;;;;;;;;5024789;28;19967;-75
2022/02/11 09:47:16;;;;;;;;;;;;;;;;;;5028598;28;20369;-77
2022/02/11 09:49:44;;;;;;;;;;;;;;;;;;5027141;28;19922;-74
2022/02/11 09:52:10;;;;;;;;;;;;;;;;;;5025476;28;19928;-72
2022/02/11 09:54:36;;;;;;;;;;;;;;;;;;5022813;28;19916;-75
2022/02/11 09:57:01;;;;;;;;;;;;;;;;;;5016522;28;19979;-77
2022/02/11 09:59:27;;;;;;;;;;;;;;;;;;5018260;28;20409;-75
2022/02/11 10:01:52;;;;;;;;;;;;;;;;;;5023066;28;19921;-73
2022/02/11 10:04:25;;;;;;;;;;;;;;;;;;5025181;28;20039;-77
2022/02/11 10:06:51;;;;;;;;;;;;;;;;;;5021850;28;20430;-75
2022/02/11 10:09:17;;;;;;;;;;;;;;;;;;5023395;28;20011;-77
2022/02/11 10:11:44;;;;;;;;;;;;;;;;;;5023674;28;19919;-74
2022/02/11 10:14:33;;;;;;;;;;;;;;;;;;5034603;28;19928;-73
2022/02/11 10:17:04;;;;;;;;;;;;;;;;;;5016426;28;19938;-77
2022/02/11 10:19:36;;;;;;;;;;;;;;;;;;5017105;28;20373;-76
2022/02/11 10:22:09;;;;;;;;;;;;;;;;;;5020834;28;19956;-77
2022/02/11 10:24:34;;;;;;;;;;;;;;;;;;5018375;28;19917;-77
2022/02/11 10:27:00;;;;;;;;;;;;;;;;;;5030323;28;20563;-73
2022/02/11 10:29:38;;;;;;;;;;;;;;;;;;5024636;28;19921;-74
2022/02/11 10:32:04;;;;;;;;;;;;;;;;;;5025721;28;19932;-75
2022/02/11 10:34:31;;;;;;;;;;;;;;;;;;5024998;28;19920;-76
2022/02/11 10:36:56;;;;;;;;;;;;;;;;;;5020918;28;20037;-77
2022/02/11 10:39:22;;;;;;;;;;;;;;;;;;5022493;28;20358;-77
2022/02/11 10:42:04;;;;;;;;;;;;;;;;;;5021687;28;19924;-76
2022/02/11 10:44:31;;;;;;;;;;;;;;;;;;5040706;28;19916;-73
2022/02/11 10:47:03;;;;;;;;;;;;;;;;;;5022198;28;19959;-73
2022/02/11 10:49:29;;;;;;;;;;;;;;;;;;5038190;28;19968;-76
2022/02/11 10:51:55;;;;;;;;;;;;;;;;;;5025662;28;19919;-78
2022/02/11 10:54:26;;;;;;;;;;;;;;;;;;5024226;28;20406;-73
2022/02/11 10:56:52;;;;;;;;;;;;;;;;;;5023589;28;19971;-75
2022/02/11 10:59:25;;;;;;;;;;;;;;;;;;5021566;28;20154;-76
2022/02/11 11:01:50;;;;;;;;;;;;;;;;;;5022589;28;19916;-73
2022/02/11 11:04:17;;;;;;;;;;;;;;;;;;5023088;28;19924;-74
2022/02/11 11:06:43;;;;;;;;;;;;;;;;;;5038138;28;19912;-76
2022/02/11 11:09:09;;;;;;;;;;;;;;;;;;5019381;28;19996;-73
2022/02/11 11:11:35;;;;;;;;;;;;;;;;;;5022901;28;19920;-77
2022/02/11 11:14:02;;;;;;;;;;;;;;;;;;5024683;28;19952;-75
2022/02/11 11:16:28;;;;;;;;;;;;;;;;;;5024688;28;19917;-76
2022/02/11 11:18:53;;;;;;;;;;;;;;;;;;5022645;28;19921;-74
2022/02/11 11:21:19;;;;;;;;;;;;;;;;;;5026162;28;19913;-77
2022/02/11 11:23:55;;;;;;;;;;;;;;;;;;5026207;28;19966;-76
2022/02/11 11:26:33;;;;;;;;;;;;;;;;;;5022537;28;20372;-74
2022/02/11 11:29:10;;;;;;;;;;;;;;;;;;5019864;28;19921;-75
2022/02/11 11:31:36;;;;;;;;;;;;;;;;;;5022003;28;19920;-76
2022/02/11 11:34:24;;;;;;;;;;;;;;;;;;5023792;28;20459;-74
2022/02/11 11:36:59;;;;;;;;;;;;;;;;;;5037273;28;19917;-74
2022/02/11 11:39:25;;;;;;;;;;;;;;;;;;5021517;28;19931;-76
2022/02/11 11:42:07;;;;;;;;;;;;;;;;;;5021683;28;20434;-73
2022/02/11 11:44:42;;;;;;;;;;;;;;;;;;5023542;28;20077;-78
2022/02/11 11:47:11;;;;;;;;;;;;;;;;;;5022295;28;19925;-77
2022/02/11 11:49:40;;;;;;;;;;;;;;;;;;5020198;28;20356;-76
2022/02/11 11:52:06;;;;;;;;;;;;;;;;;;5039003;28;20299;-74
2022/02/11 11:54:32;;;;;;;;;;;;;;;;;;5022825;28;20350;-76
2022/02/11 11:57:01;;;;;;;;;;;;;;;;;;5019055;28;20055;-75
2022/02/11 11:59:36;;;;;;;;;;;;;;;;;;5018686;28;20317;-75
2022/02/11 12:02:10;;;;;;;;;;;;;;;;;;5021636;28;19917;-74
2022/02/11 12:04:41;;;;;;;;;;;;;;;;;;5021566;28;19920;-76
2022/02/11 12:07:11;;;;;;;;;;;;;;;;;;5022714;28;20361;-73
2022/02/11 12:09:37;;;;;;;;;;;;;;;;;;5019000;28;20203;-76
2022/02/11 12:12:03;;;;;;;;;;;;;;;;;;5003736;28;19925;-78
2022/02/11 12:14:30;;;;;;;;;;;;;;;;;;5022857;28;19913;-76
2022/02/11 12:16:57;;;;;;;;;;;;;;;;;;5003561;28;19917;-75
2022/02/11 12:19:23;;;;;;;;;;;;;;;;;;5018985;28;20279;-74
2022/02/11 12:21:48;;;;;;;;;;;;;;;;;;5025176;28;19952;-74
2022/02/11 12:30:03;;;;;;;;;;;;;;;;;;5019827;28;21014;-74
2022/02/11 12:32:32;;;;;;;;;;;;;;;;;;5023166;28;20254;-74
2022/02/11 12:34:59;;;;;;;;;;;;;;;;;;5022981;28;19913;-76
2022/02/11 12:37:26;;;;;;;;;;;;;;;;;;5019408;28;19913;-75
2022/02/11 12:40:04;;;;;;;;;;;;;;;;;;5019915;28;20673;-73
2022/02/11 12:42:30;;;;;;;;;;;;;;;;;;5022409;28;19954;-77
2022/02/11 12:44:56;;;;;;;;;;;;;;;;;;5020479;28;20452;-77
2022/02/11 12:47:21;;;;;;;;;;;;;;;;;;5037835;28;19960;-75
2022/02/11 12:49:51;;;;;;;;;;;;;;;;;;5018100;28;20361;-76
2022/02/11 12:52:21;;;;;;;;;;;;;;;;;;5025242;28;19912;-75
2022/02/11 12:55:16;;;;;;;;;;;;;;;;;;5024334;28;19966;-74
2022/02/11 12:57:43;;;;;;;;;;;;;;;;;;5020835;28;19929;-74
2022/02/11 13:00:14;;;;;;;;;;;;;;;;;;5022674;28;20381;-76
2022/02/11 13:02:40;;;;;;;;;;;;;;;;;;5026844;28;19957;-75
2022/02/11 13:05:08;;;;;;;;;;;;;;;;;;5025044;28;20184;-74
2022/02/11 13:07:36;;;;;;;;;;;;;;;;;;5024231;28;20417;-77
2022/02/11 13:10:02;;;;;;;;;;;;;;;;;;5021134;28;19921;-75
2022/02/11 13:12:34;;;;;;;;;;;;;;;;;;5023674;28;19990;-75
2022/02/11 13:15:01;;;;;;;;;;;;;;;;;;5041380;28;19967;-77
2022/02/11 13:17:28;;;;;;;;;;;;;;;;;;5028571;28;19999;-76
2022/02/11 13:20:03;;;;;;;;;;;;;;;;;;5022791;28;19917;-76
2022/02/11 13:22:28;;;;;;;;;;;;;;;;;;5024317;28;20007;-75
2022/02/11 13:24:54;;;;;;;;;;;;;;;;;;5019755;28;20015;-74
2022/02/11 13:27:19;;;;;;;;;;;;;;;;;;5026101;28;20320;-73
2022/02/11 13:29:59;;;;;;;;;;;;;;;;;;5029921;28;19917;-76
2022/02/11 13:32:28;;;;;;;;;;;;;;;;;;5026400;28;19932;-76
2022/02/11 13:35:00;;;;;;;;;;;;;;;;;;5032971;28;19996;-74
2022/02/11 13:37:45;;;;;;;;;;;;;;;;;;5028026;28;19963;-76
2022/02/11 13:40:22;;;;;;;;;;;;;;;;;;5023402;28;20180;-74
2022/02/11 13:42:54;;;;;;;;;;;;;;;;;;5027023;28;20350;-76
2022/02/11 13:45:20;;;;;;;;;;;;;;;;;;5025314;28;19916;-76
2022/02/11 13:48:07;;;;;;;;;;;;;;;;;;5026634;28;19913;-75
2022/02/11 13:50:52;;;;;;;;;;;;;;;;;;5042116;28;19917;-77
2022/02/11 13:53:31;;;;;;;;;;;;;;;;;;5024398;28;19923;-77
2022/02/11 13:55:56;;;;;;;;;;;;;;;;;;5025094;28;19913;-75
2022/02/11 13:58:22;;;;;;;;;;;;;;;;;;5024057;28;20603;-75
2022/02/11 14:00:47;;;;;;;;;;;;;;;;;;5024880;28;20253;-73
2022/02/11 14:03:23;;;;;;;;;;;;;;;;;;5024631;28;19921;-76
2022/02/11 14:05:49;;;;;;;;;;;;;;;;;;5023853;28;20357;-75
2022/02/11 14:08:14;;;;;;;;;;;;;;;;;;5037438;28;19925;-76
2022/02/11 14:10:43;;;;;;;;;;;;;;;;;;5023149;28;20510;-77
2022/02/11 14:13:09;;;;;;;;;;;;;;;;;;5023596;28;20365;-74
2022/02/11 14:15:36;;;;;;;;;;;;;;;;;;5024161;28;20019;-75
2022/02/11 14:18:05;;;;;;;;;;;;;;;;;;5022096;28;19925;-73
2022/02/11 14:20:30;;;;;;;;;;;;;;;;;;5024463;28;19913;-77
2022/02/11 14:22:56;;;;;;;;;;;;;;;;;;5024493;28;20027;-76
2022/02/11 14:25:21;;;;;;;;;;;;;;;;;;5023752;28;19983;-72
2022/02/11 14:27:47;;;;;;;;;;;;;;;;;;5026272;28;19913;-74
2022/02/11 14:30:12;;;;;;;;;;;;;;;;;;5021668;28;20003;-77
2022/02/11 14:32:38;;;;;;;;;;;;;;;;;;5039188;28;19912;-77
2022/02/11 14:35:04;;;;;;;;;;;;;;;;;;5059524;28;19920;-77
2022/02/11 14:37:29;;;;;;;;;;;;;;;;;;5038905;28;19991;-78
2022/02/11 14:39:54;;;;;;;;;;;;;;;;;;5035284;28;19917;-73
2022/02/11 14:42:20;;;;;;;;;;;;;;;;;;5035197;28;19920;-78
2022/02/11 14:44:46;;;;;;;;;;;;;;;;;;5041978;28;19923;-77
2022/02/11 14:47:13;;;;;;;;;;;;;;;;;;5041562;28;20015;-77
2022/02/11 14:49:40;;;;;;;;;;;;;;;;;;5037993;28;19912;-77
2022/02/11 14:52:06;;;;;;;;;;;;;;;;;;5035755;28;19913;-78
2022/02/11 14:54:32;;;;;;;;;;;;;;;;;;5034480;28;19920;-78
2022/02/11 14:56:58;;;;;;;;;;;;;;;;;;5036237;28;19920;-76
2022/02/11 14:59:23;;;;;;;;;;;;;;;;;;5043332;28;19921;-76
2022/02/11 15:01:49;;;;;;;;;;;;;;;;;;5025249;28;19917;-78
2022/02/11 15:04:18;;;;;;;;;;;;;;;;;;5044418;28;19916;-77
2022/02/11 15:06:46;;;;;;;;;;;;;;;;;;5032401;28;19917;-76
2022/02/11 15:09:12;;;;;;;;;;;;;;;;;;5032996;28;19916;-79
2022/02/11 15:11:38;;;;;;;;;;;;;;;;;;5038629;28;19928;-76
2022/02/11 15:14:03;;;;;;;;;;;;;;;;;;5047772;28;19975;-77
2022/02/11 15:16:28;;;;;;;;;;;;;;;;;;5038562;28;20003;-77
2022/02/11 15:18:54;;;;;;;;;;;;;;;;;;5036772;28;19916;-75
2022/02/11 15:21:20;;;;;;;;;;;;;;;;;;5034936;28;19920;-77
2022/02/11 15:23:46;;;;;;;;;;;;;;;;;;5032853;28;19917;-76
2022/02/11 15:26:12;;;;;;;;;;;;;;;;;;5039426;28;19917;-75
2022/02/11 15:28:38;;;;;;;;;;;;;;;;;;5035523;28;19919;-77
2022/02/11 15:31:04;;;;;;;;;;;;;;;;;;5036696;28;19928;-76
2022/02/11 15:33:31;;;;;;;;;;;;;;;;;;5038028;28;19913;-76
2022/02/11 15:35:56;;;;;;;;;;;;;;;;;;5027693;28;19948;-77
2022/02/11 15:38:22;;;;;;;;;;;;;;;;;;5036906;28;19963;-78
2022/02/11 15:40:48;;;;;;;;;;;;;;;;;;5029637;28;19940;-78
2022/02/11 15:43:14;;;;;;;;;;;;;;;;;;5034470;28;20064;-76
2022/02/11 15:45:39;;;;;;;;;;;;;;;;;;5038925;28;20310;-76
2022/02/11 15:48:05;;;;;;;;;;;;;;;;;;5040373;28;19924;-77
2022/02/11 15:50:30;;;;;;;;;;;;;;;;;;5034344;28;19912;-76
2022/02/11 15:52:55;;;;;;;;;;;;;;;;;;5034556;28;19948;-75
2022/02/11 15:55:21;;;;;;;;;;;;;;;;;;5038916;28;20457;-77
2022/02/11 15:57:47;;;;;;;;;;;;;;;;;;5034323;28;20262;-76
2022/02/11 16:00:12;;;;;;;;;;;;;;;;;;5039551;28;19917;-76
2022/02/11 16:02:38;;;;;;;;;;;;;;;;;;5036021;28;20145;-78
2022/02/11 16:05:06;;;;;;;;;;;;;;;;;;5026989;28;19920;-76
2022/02/11 16:07:31;;;;;;;;;;;;;;;;;;5035249;28;20420;-77
2022/02/11 16:09:56;;;;;;;;;;;;;;;;;;5038743;28;20074;-76
2022/02/11 16:12:22;;;;;;;;;;;;;;;;;;5035999;28;19916;-78
2022/02/11 16:14:47;;;;;;;;;;;;;;;;;;5040581;28;19940;-76
2022/02/11 16:17:13;;;;;;;;;;;;;;;;;;5036207;28;20379;-76
2022/02/11 16:19:38;;;;;;;;;;;;;;;;;;5033276;28;20369;-78
2022/02/11 16:22:04;;;;;;;;;;;;;;;;;;5031540;28;19913;-78
2022/02/11 16:24:30;;;;;;;;;;;;;;;;;;5028291;28;19913;-75
2022/02/11 16:26:55;;;;;;;;;;;;;;;;;;5035168;28;19958;-71
2022/02/11 16:29:21;;;;;;;;;;;;;;;;;;5041936;28;20277;-76
2022/02/11 16:31:49;;;;;;;;;;;;;;;;;;5041507;28;19996;-77
2022/02/11 16:34:15;;;;;;;;;;;;;;;;;;5042967;28;19913;-77
2022/02/11 16:36:42;;;;;;;;;;;;;;;;;;5043868;28;19924;-76
2022/02/11 16:39:09;;;;;;;;;;;;;;;;;;5042867;28;20015;-78
2022/02/11 16:41:34;;;;;;;;;;;;;;;;;;5043706;28;19921;-77
2022/02/11 16:44:00;;;;;;;;;;;;;;;;;;5037246;28;20381;-76
2022/02/11 16:46:26;;;;;;;;;;;;;;;;;;5038810;28;19962;-76
2022/02/11 16:48:51;;;;;;;;;;;;;;;;;;5038857;28;19975;-77
2022/02/11 16:51:16;;;;;;;;;;;;;;;;;;5038698;28;19939;-76
2022/02/11 16:53:42;;;;;;;;;;;;;;;;;;5042218;28;19913;-77
2022/02/11 16:56:08;;;;;;;;;;;;;;;;;;5038748;28;20377;-76
2022/02/11 16:58:33;;;;;;;;;;;;;;;;;;5042753;28;19919;-77
2022/02/11 17:00:58;;;;;;;;;;;;;;;;;;5041828;28;19923;-76
2022/02/11 17:03:24;;;;;;;;;;;;;;;;;;5040843;28;19913;-76
2022/02/11 17:05:49;;;;;;;;;;;;;;;;;;5036982;28;20062;-76
2022/02/11 17:08:15;;;;;;;;;;;;;;;;;;5040822;28;19978;-76
2022/02/11 17:10:41;;;;;;;;;;;;;;;;;;5043612;28;19913;-77
2022/02/11 17:13:07;;;;;;;;;;;;;;;;;;5038884;28;20057;-76
2022/02/11 17:15:33;;;;;;;;;;;;;;;;;;5043564;28;19998;-76
2022/02/11 17:18:00;;;;;;;;;;;;;;;;;;5040361;28;20024;-78
2022/02/11 17:20:25;;;;;;;;;;;;;;;;;;5038663;28;19917;-76
2022/02/11 17:22:50;;;;;;;;;;;;;;;;;;5044363;28;19920;-73
2022/02/11 17:25:17;;;;;;;;;;;;;;;;;;5051202;28;19917;-77
2022/02/11 17:27:43;;;;;;;;;;;;;;;;;;5042943;28;20004;-77
2022/02/11 17:30:09;;;;;;;;;;;;;;;;;;5038209;28;20484;-78
2022/02/11 17:32:34;;;;;;;;;;;;;;;;;;5043347;28;19919;-78
2022/02/11 17:35:00;;;;;;;;;;;;;;;;;;5037840;28;20289;-76
2022/02/11 17:37:25;;;;;;;;;;;;;;;;;;5038191;28;19951;-76
2022/02/11 17:39:51;;;;;;;;;;;;;;;;;;5038326;28;19927;-77
2022/02/11 17:42:17;;;;;;;;;;;;;;;;;;5039618;28;19921;-75
2022/02/11 17:44:43;;;;;;;;;;;;;;;;;;5043521;28;19990;-77
2022/02/11 17:47:10;;;;;;;;;;;;;;;;;;5039102;28;20672;-76
2022/02/11 17:49:35;;;;;;;;;;;;;;;;;;5044028;28;19919;-78
2022/02/11 17:52:01;;;;;;;;;;;;;;;;;;5033381;28;19921;-77
2022/02/11 17:54:26;;;;;;;;;;;;;;;;;;5042212;28;20376;-78
2022/02/11 17:56:52;;;;;;;;;;;;;;;;;;5043222;28;19917;-77
2022/02/11 17:59:18;;;;;;;;;;;;;;;;;;5047407;28;19966;-78
2022/02/11 18:01:44;;;;;;;;;;;;;;;;;;5044771;28;19970;-77
2022/02/11 18:04:10;;;;;;;;;;;;;;;;;;5041724;28;19916;-77
2022/02/11 18:06:36;;;;;;;;;;;;;;;;;;5044008;28;20353;-76
2022/02/11 18:09:02;;;;;;;;;;;;;;;;;;5043897;28;20439;-76
2022/02/11 18:11:29;;;;;;;;;;;;;;;;;;5045736;28;19912;-77
2022/02/11 18:13:54;;;;;;;;;;;;;;;;;;5041454;28;19952;-77
2022/02/11 18:16:21;;;;;;;;;;;;;;;;;;5036981;28;20356;-78
2022/02/11 18:18:48;;;;;;;;;;;;;;;;;;5037369;28;19928;-77
2022/02/11 18:21:16;;;;;;;;;;;;;;;;;;5040259;28;20469;-78
2022/02/11 18:23:42;;;;;;;;;;;;;;;;;;5033298;28;19921;-76
2022/02/11 18:26:08;;;;;;;;;;;;;;;;;;5047517;28;20361;-78
2022/02/11 18:28:34;;;;;;;;;;;;;;;;;;5042184;28;19920;-77
2022/02/11 18:30:59;;;;;;;;;;;;;;;;;;5040721;28;20364;-77
2022/02/11 18:33:24;;;;;;;;;;;;;;;;;;5035963;28;19975;-75
2022/02/11 18:35:50;;;;;;;;;;;;;;;;;;5039368;28;19917;-79
2022/02/11 18:38:15;;;;;;;;;;;;;;;;;;5039204;28;19912;-77
2022/02/11 18:40:40;;;;;;;;;;;;;;;;;;5035214;28;20240;-76
2022/02/11 18:43:07;;;;;;;;;;;;;;;;;;5037313;28;20275;-76
2022/02/11 18:45:33;;;;;;;;;;;;;;;;;;5041781;28;19916;-77
2022/02/11 18:47:59;;;;;;;;;;;;;;;;;;5039626;28;20293;-75
2022/02/11 18:50:25;;;;;;;;;;;;;;;;;;5036566;28;20014;-76
2022/02/11 18:52:51;;;;;;;;;;;;;;;;;;5041896;28;19912;-73
2022/02/11 18:55:16;;;;;;;;;;;;;;;;;;5038113;28;19913;-77
2022/02/11 18:57:42;;;;;;;;;;;;;;;;;;5031211;28;19920;-77
2022/02/11 19:00:26;;;;;;;;;;;;;;;;;;5039063;28;19927;-77
2022/02/11 19:02:53;;;;;;;;;;;;;;;;;;5034898;28;19913;-74
2022/02/11 19:05:19;;;;;;;;;;;;;;;;;;5010575;28;19923;-75
2022/02/11 19:07:45;;;;;;;;;;;;;;;;;;5028880;28;20000;-76
2022/02/11 19:10:12;;;;;;;;;;;;;;;;;;5035784;28;19908;-77
2022/02/11 19:12:38;;;;;;;;;;;;;;;;;;5038284;28;20357;-77
2022/02/11 19:15:04;;;;;;;;;;;;;;;;;;5035248;28;19916;-76
2022/02/11 19:17:29;;;;;;;;;;;;;;;;;;5030706;28;19913;-75
2022/02/11 19:19:55;;;;;;;;;;;;;;;;;;5030578;28;19913;-76
2022/02/11 19:22:24;;;;;;;;;;;;;;;;;;5028715;28;20453;-76
2022/02/11 19:24:50;;;;;;;;;;;;;;;;;;5030036;28;20364;-76
2022/02/11 19:27:26;;;;;;;;;;;;;;;;;;5030406;28;19920;-77
2022/02/11 19:29:53;;;;;;;;;;;;;;;;;;5030284;28;19965;-77
2022/02/11 19:32:18;;;;;;;;;;;;;;;;;;5030099;28;19936;-78
2022/02/11 19:34:44;;;;;;;;;;;;;;;;;;5045433;28;19916;-76
2022/02/11 19:37:10;;;;;;;;;;;;;;;;;;5028767;28;20420;-78
2022/02/11 19:39:36;;;;;;;;;;;;;;;;;;5028836;28;19913;-75
2022/02/11 19:42:02;;;;;;;;;;;;;;;;;;5029404;28;20318;-76
2022/02/11 19:44:28;;;;;;;;;;;;;;;;;;5030068;28;20070;-77
2022/02/11 19:46:54;;;;;;;;;;;;;;;;;;5028803;28;20503;-77
2022/02/11 19:49:20;;;;;;;;;;;;;;;;;;5028199;28;20015;-78
2022/02/11 19:51:45;;;;;;;;;;;;;;;;;;5029909;28;19921;-77
2022/02/11 19:54:11;;;;;;;;;;;;;;;;;;5030481;28;19913;-77
2022/02/11 19:56:36;;;;;;;;;;;;;;;;;;5032596;28;20251;-77
2022/02/11 19:59:02;;;;;;;;;;;;;;;;;;5031922;28;19940;-77
2022/02/11 20:01:28;;;;;;;;;;;;;;;;;;5028917;28;19917;-76
2022/02/11 20:03:53;;;;;;;;;;;;;;;;;;5029297;28;19966;-76
2022/02/11 20:06:19;;;;;;;;;;;;;;;;;;5029705;28;20397;-77
2022/02/11 20:08:44;;;;;;;;;;;;;;;;;;5029776;28;19949;-77
2022/02/11 20:11:10;;;;;;;;;;;;;;;;;;5027819;28;20246;-78
2022/02/11 20:13:35;;;;;;;;;;;;;;;;;;5027645;28;20382;-77
2022/02/11 20:16:00;;;;;;;;;;;;;;;;;;5027573;28;20288;-76
2022/02/11 20:18:27;;;;;;;;;;;;;;;;;;5028666;28;20298;-76
2022/02/11 20:20:54;;;;;;;;;;;;;;;;;;5027797;28;19917;-79
2022/02/11 20:23:19;;;;;;;;;;;;;;;;;;5029606;28;19963;-77
2022/02/11 20:25:45;;;;;;;;;;;;;;;;;;5029644;28;20004;-77
2022/02/11 20:28:11;;;;;;;;;;;;;;;;;;5029172;28;20392;-77
2022/02/11 20:30:37;;;;;;;;;;;;;;;;;;5028911;28;19917;-78
2022/02/11 20:33:04;;;;;;;;;;;;;;;;;;5029115;28;19939;-78
2022/02/11 20:35:33;;;;;;;;;;;;;;;;;;5027779;28;20382;-77
2022/02/11 20:38:02;;;;;;;;;;;;;;;;;;5029393;28;20435;-76
2022/02/11 20:40:27;;;;;;;;;;;;;;;;;;5027336;28;19921;-76